createdAt,value
2018-05-12T00:00:03.615Z,0
2018-05-12T00:01:03.874Z,0
2018-05-12T00:02:04.126Z,0
2018-05-12T00:03:03.633Z,0
2018-05-12T00:04:03.626Z,0
2018-05-12T00:05:04.181Z,0
2018-05-12T00:06:04.026Z,0
2018-05-12T00:07:04.096Z,0
2018-05-12T00:08:03.862Z,0
2018-05-12T00:09:04.099Z,0
2018-05-12T00:10:03.823Z,0
2018-05-12T00:11:03.598Z,0
2018-05-12T00:12:04.083Z,0
2018-05-12T00:13:03.581Z,0
2018-05-12T00:14:04.062Z,0
2018-05-12T00:15:04.378Z,0
2018-05-12T00:16:03.779Z,0
2018-05-12T00:17:04.052Z,0
2018-05-12T00:18:04.060Z,0
2018-05-12T00:19:03.822Z,0
2018-05-12T00:20:04.069Z,0
2018-05-12T00:21:04.039Z,0
2018-05-12T00:22:03.765Z,0
2018-05-12T00:23:04.053Z,0
2018-05-12T00:24:03.750Z,0
2018-05-12T00:25:03.507Z,0
2018-05-12T00:26:03.739Z,0
2018-05-12T00:27:03.772Z,0
2018-05-12T00:28:03.986Z,0
2018-05-12T00:29:03.760Z,0
2018-05-12T00:30:03.732Z,0
2018-05-12T00:31:03.753Z,0
2018-05-12T00:32:03.965Z,0
2018-05-12T00:33:03.982Z,0
2018-05-12T00:34:03.712Z,0
2018-05-12T00:35:03.729Z,0
2018-05-12T00:36:04.002Z,0
2018-05-12T00:37:03.946Z,0
2018-05-12T00:38:03.424Z,0
2018-05-12T00:39:03.924Z,0
2018-05-12T00:40:03.957Z,0
2018-05-12T00:41:03.678Z,0
2018-05-12T00:42:03.692Z,0
2018-05-12T00:43:03.515Z,0
2018-05-12T00:44:03.932Z,0
2018-05-12T00:45:03.891Z,0
2018-05-12T00:46:03.664Z,0
2018-05-12T00:47:03.624Z,0
2018-05-12T00:48:03.654Z,0
2018-05-12T00:49:03.884Z,0
2018-05-12T00:50:03.365Z,0
2018-05-12T00:51:03.652Z,0
2018-05-12T00:52:03.909Z,0
2018-05-12T00:53:03.866Z,0
2018-05-12T00:54:03.865Z,0
2018-05-12T00:55:03.587Z,0
2018-05-12T00:56:03.621Z,0
2018-05-12T00:57:03.862Z,0
2018-05-12T00:58:03.611Z,0
2018-05-12T00:59:03.568Z,0
2018-05-12T01:00:03.858Z,0
2018-05-12T01:01:03.811Z,0
2018-05-12T01:02:03.857Z,0
2018-05-12T01:03:03.797Z,0
2018-05-12T01:04:03.840Z,0
2018-05-12T01:05:03.897Z,0
2018-05-12T01:06:03.560Z,0
2018-05-12T01:07:03.524Z,0
2018-05-12T01:08:03.532Z,0
2018-05-12T01:09:03.537Z,0
2018-05-12T01:10:03.799Z,0
2018-05-12T01:11:03.539Z,0
2018-05-12T01:12:03.496Z,0
2018-05-12T01:13:03.509Z,0
2018-05-12T01:14:03.269Z,0
2018-05-12T01:15:03.474Z,0
2018-05-12T01:16:03.512Z,0
2018-05-12T01:17:03.460Z,0
2018-05-12T01:18:03.487Z,0
2018-05-12T01:19:03.707Z,0
2018-05-12T01:20:03.492Z,0
2018-05-12T01:21:03.469Z,0
2018-05-12T01:22:03.729Z,0
2018-05-12T01:23:03.679Z,0
2018-05-12T01:24:02.927Z,0
2018-05-12T01:25:03.451Z,0
2018-05-12T01:26:03.700Z,0
2018-05-12T01:27:03.457Z,0
2018-05-12T01:28:03.407Z,0
2018-05-12T01:29:03.678Z,0
2018-05-12T01:30:03.655Z,0
2018-05-12T01:31:03.438Z,0
2018-05-12T01:32:03.390Z,0
2018-05-12T01:33:03.499Z,0
2018-05-12T01:34:03.642Z,0
2018-05-12T01:35:03.665Z,0
2018-05-12T01:36:03.695Z,0
2018-05-12T01:37:03.624Z,0
2018-05-12T01:38:03.609Z,0
2018-05-12T01:39:03.649Z,0
2018-05-12T01:40:03.341Z,0
2018-05-12T01:41:03.606Z,0
2018-05-12T01:42:03.601Z,0
2018-05-12T01:43:03.610Z,0
2018-05-12T01:44:03.311Z,0
2018-05-12T01:45:03.322Z,0
2018-05-12T01:46:03.543Z,0
2018-05-12T01:47:03.586Z,0
2018-05-12T01:48:03.282Z,0
2018-05-12T01:49:03.316Z,0
2018-05-12T01:50:03.284Z,0
2018-05-12T01:51:03.562Z,0
2018-05-12T01:52:03.512Z,0
2018-05-12T01:53:03.523Z,0
2018-05-12T01:54:03.513Z,0
2018-05-12T01:55:03.540Z,0
2018-05-12T01:56:03.530Z,0
2018-05-12T01:57:03.251Z,0
2018-05-12T01:58:03.584Z,0
2018-05-12T01:59:03.476Z,0
2018-05-12T02:00:03.246Z,0
2018-05-12T02:01:03.473Z,0
2018-05-12T02:02:03.495Z,0
2018-05-12T02:03:03.436Z,0
2018-05-12T02:04:03.476Z,0
2018-05-12T02:05:03.450Z,0
2018-05-12T02:06:03.181Z,0
2018-05-12T02:07:03.470Z,0
2018-05-12T02:08:03.410Z,0
2018-05-12T02:09:03.173Z,0
2018-05-12T02:10:03.163Z,0
2018-05-12T02:11:03.183Z,0
2018-05-12T02:12:02.910Z,0
2018-05-12T02:13:03.403Z,0
2018-05-12T02:14:03.126Z,0
2018-05-12T02:15:03.369Z,0
2018-05-12T02:16:03.400Z,0
2018-05-12T02:17:03.367Z,0
2018-05-12T02:18:03.395Z,0
2018-05-12T02:19:03.340Z,0
2018-05-12T02:20:03.377Z,0
2018-05-12T02:21:03.338Z,0
2018-05-12T02:22:03.360Z,0
2018-05-12T02:23:03.314Z,0
2018-05-12T02:24:03.104Z,0
2018-05-12T02:25:03.326Z,0
2018-05-12T02:26:03.067Z,0
2018-05-12T02:27:03.045Z,0
2018-05-12T02:28:03.284Z,0
2018-05-12T02:29:03.299Z,0
2018-05-12T02:30:03.302Z,0
2018-05-12T02:31:03.008Z,0
2018-05-12T02:32:03.090Z,0
2018-05-12T02:33:03.277Z,4
2018-05-12T02:34:03.306Z,4
2018-05-12T02:35:03.245Z,0
2018-05-12T02:36:03.283Z,0
2018-05-12T02:37:03.230Z,4
2018-05-12T02:38:03.258Z,4
2018-05-12T02:39:03.206Z,4
2018-05-12T02:40:03.273Z,4
2018-05-12T02:41:02.982Z,4
2018-05-12T02:42:03.232Z,8
2018-05-12T02:43:03.182Z,8
2018-05-12T02:44:03.183Z,4
2018-05-12T02:45:02.949Z,8
2018-05-12T02:46:03.204Z,8
2018-05-12T02:47:02.953Z,12
2018-05-12T02:48:02.897Z,12
2018-05-12T02:49:03.170Z,12
2018-05-12T02:50:03.141Z,12
2018-05-12T02:51:03.237Z,16
2018-05-12T02:52:02.882Z,20
2018-05-12T02:53:02.647Z,24
2018-05-12T02:54:03.120Z,24
2018-05-12T02:55:02.891Z,24
2018-05-12T02:56:02.855Z,28
2018-05-12T02:57:03.144Z,36
2018-05-12T02:58:03.116Z,40
2018-05-12T02:59:02.826Z,40
2018-05-12T03:00:02.833Z,44
2018-05-12T03:01:02.839Z,52
2018-05-12T03:02:02.853Z,56
2018-05-12T03:03:03.095Z,64
2018-05-12T03:04:03.045Z,72
2018-05-12T03:05:02.558Z,84
2018-05-12T03:06:03.031Z,92
2018-05-12T03:07:02.812Z,100
2018-05-12T03:08:03.023Z,112
2018-05-12T03:09:02.809Z,120
2018-05-12T03:10:02.762Z,132
2018-05-12T03:11:03.065Z,140
2018-05-12T03:12:02.987Z,156
2018-05-12T03:13:02.745Z,164
2018-05-12T03:14:02.750Z,176
2018-05-12T03:15:03.018Z,188
2018-05-12T03:16:02.746Z,204
2018-05-12T03:17:02.977Z,224
2018-05-12T03:18:02.708Z,244
2018-05-12T03:19:02.686Z,264
2018-05-12T03:20:02.987Z,284
2018-05-12T03:21:02.692Z,304
2018-05-12T03:22:02.428Z,324
2018-05-12T03:23:02.706Z,344
2018-05-12T03:24:02.917Z,368
2018-05-12T03:25:02.950Z,392
2018-05-12T03:26:02.911Z,420
2018-05-12T03:27:02.938Z,448
2018-05-12T03:28:02.882Z,480
2018-05-12T03:29:02.893Z,512
2018-05-12T03:30:02.883Z,540
2018-05-12T03:31:02.659Z,564
2018-05-12T03:32:02.908Z,588
2018-05-12T03:33:02.966Z,608
2018-05-12T03:34:02.615Z,624
2018-05-12T03:35:02.627Z,640
2018-05-12T03:36:02.851Z,656
2018-05-12T03:37:02.853Z,684
2018-05-12T03:38:02.825Z,712
2018-05-12T03:39:02.865Z,744
2018-05-12T03:40:02.308Z,776
2018-05-12T03:41:02.335Z,800
2018-05-12T03:42:02.565Z,828
2018-05-12T03:43:02.844Z,856
2018-05-12T03:44:02.793Z,892
2018-05-12T03:45:02.810Z,920
2018-05-12T03:46:02.537Z,944
2018-05-12T03:47:02.814Z,964
2018-05-12T03:48:02.761Z,992
2018-05-12T03:49:02.813Z,1016
2018-05-12T03:50:02.779Z,1040
2018-05-12T03:51:02.794Z,1064
2018-05-12T03:52:02.741Z,1084
2018-05-12T03:53:02.760Z,1104
2018-05-12T03:54:02.727Z,1116
2018-05-12T03:55:02.764Z,1136
2018-05-12T03:56:02.729Z,1144
2018-05-12T03:57:02.504Z,1160
2018-05-12T03:58:02.461Z,1180
2018-05-12T03:59:02.483Z,1212
2018-05-12T04:00:02.720Z,1256
2018-05-12T04:01:02.451Z,1300
2018-05-12T04:02:02.691Z,1336
2018-05-12T04:03:02.207Z,1344
2018-05-12T04:04:02.444Z,1348
2018-05-12T04:05:02.678Z,1368
2018-05-12T04:06:02.413Z,1420
2018-05-12T04:07:02.394Z,1500
2018-05-12T04:08:02.164Z,1592
2018-05-12T04:09:02.648Z,1696
2018-05-12T04:10:02.682Z,1808
2018-05-12T04:11:02.367Z,1912
2018-05-12T04:12:02.416Z,1988
2018-05-12T04:13:02.374Z,2024
2018-05-12T04:14:02.374Z,2052
2018-05-12T04:15:02.649Z,2088
2018-05-12T04:16:02.082Z,2128
2018-05-12T04:17:02.608Z,2164
2018-05-12T04:18:02.603Z,2212
2018-05-12T04:19:02.364Z,2272
2018-05-12T04:20:02.624Z,2316
2018-05-12T04:21:02.845Z,2328
2018-05-12T04:22:02.314Z,2312
2018-05-12T04:23:02.550Z,2304
2018-05-12T04:24:02.586Z,2316
2018-05-12T04:25:02.561Z,2368
2018-05-12T04:26:02.322Z,2436
2018-05-12T04:27:02.282Z,2472
2018-05-12T04:28:02.303Z,2476
2018-05-12T04:29:02.519Z,2492
2018-05-12T04:30:02.543Z,2480
2018-05-12T04:31:02.503Z,2444
2018-05-12T04:32:02.549Z,2436
2018-05-12T04:33:02.522Z,2460
2018-05-12T04:34:02.522Z,2488
2018-05-12T04:35:02.495Z,2568
2018-05-12T04:36:02.483Z,2724
2018-05-12T04:37:02.239Z,2896
2018-05-12T04:38:02.501Z,3128
2018-05-12T04:39:02.202Z,3336
2018-05-12T04:40:02.497Z,3536
2018-05-12T04:41:02.467Z,3672
2018-05-12T04:42:02.496Z,3720
2018-05-12T04:43:02.188Z,3716
2018-05-12T04:44:01.962Z,3700
2018-05-12T04:45:01.924Z,3696
2018-05-12T04:46:02.454Z,3712
2018-05-12T04:47:02.418Z,3748
2018-05-12T04:48:02.459Z,3824
2018-05-12T04:49:02.435Z,3828
2018-05-12T04:50:02.437Z,3832
2018-05-12T04:51:02.156Z,3976
2018-05-12T04:52:02.411Z,4128
2018-05-12T04:53:02.415Z,4196
2018-05-12T04:54:02.418Z,4252
2018-05-12T04:55:02.173Z,4296
2018-05-12T04:56:02.385Z,4280
2018-05-12T04:57:02.409Z,4340
2018-05-12T04:58:02.357Z,4488
2018-05-12T04:59:02.151Z,4688
2018-05-12T05:00:02.362Z,5020
2018-05-12T05:01:02.138Z,5376
2018-05-12T05:02:02.368Z,5824
2018-05-12T05:03:02.389Z,6476
2018-05-12T05:04:02.348Z,6900
2018-05-12T05:05:02.370Z,7152
2018-05-12T05:06:02.358Z,7320
2018-05-12T05:07:02.068Z,7440
2018-05-12T05:08:02.321Z,7660
2018-05-12T05:09:02.340Z,7904
2018-05-12T05:10:02.341Z,8092
2018-05-12T05:11:02.387Z,8288
2018-05-12T05:12:02.300Z,8624
2018-05-12T05:13:02.335Z,8988
2018-05-12T05:14:02.281Z,9360
2018-05-12T05:15:02.323Z,9672
2018-05-12T05:16:02.312Z,9828
2018-05-12T05:17:02.295Z,9884
2018-05-12T05:18:02.319Z,9692
2018-05-12T05:19:02.261Z,9800
2018-05-12T05:20:02.047Z,10024
2018-05-12T05:21:02.030Z,10708
2018-05-12T05:22:02.282Z,11976
2018-05-12T05:23:02.244Z,15488
2018-05-12T05:24:02.244Z,16736
2018-05-12T05:25:02.265Z,13096
2018-05-12T05:26:02.266Z,12760
2018-05-12T05:27:02.273Z,13192
2018-05-12T05:28:01.987Z,13992
2018-05-12T05:29:02.262Z,18816
2018-05-12T05:30:02.253Z,21600
2018-05-12T05:31:01.959Z,22400
2018-05-12T05:32:02.259Z,23904
2018-05-12T05:33:01.954Z,23936
2018-05-12T05:34:01.987Z,22208
2018-05-12T05:35:01.958Z,22336
2018-05-12T05:36:02.253Z,24032
2018-05-12T05:37:02.224Z,25888
2018-05-12T05:38:02.246Z,25664
2018-05-12T05:39:02.192Z,22976
2018-05-12T05:40:02.200Z,22784
2018-05-12T05:41:02.228Z,25216
2018-05-12T05:42:01.973Z,26080
2018-05-12T05:43:02.240Z,25216
2018-05-12T05:44:01.940Z,25536
2018-05-12T05:45:01.708Z,27008
2018-05-12T05:46:02.190Z,26688
2018-05-12T05:47:02.238Z,26112
2018-05-12T05:48:02.197Z,26816
2018-05-12T05:49:02.238Z,27840
2018-05-12T05:50:02.205Z,29856
2018-05-12T05:51:02.256Z,30560
2018-05-12T05:52:02.201Z,29248
2018-05-12T05:53:02.216Z,28000
2018-05-12T05:54:01.960Z,29568
2018-05-12T05:55:01.737Z,31584
2018-05-12T05:56:02.208Z,31776
2018-05-12T05:57:02.238Z,29856
2018-05-12T05:58:01.988Z,29280
2018-05-12T05:59:02.265Z,30688
2018-05-12T06:00:02.243Z,30528
2018-05-12T06:01:02.259Z,31328
2018-05-12T06:02:02.232Z,29920
2018-05-12T06:03:02.297Z,28192
2018-05-12T06:04:02.258Z,28928
2018-05-12T06:05:02.034Z,29984
2018-05-12T06:06:02.266Z,31744
2018-05-12T06:07:02.622Z,31232
2018-05-12T06:08:02.259Z,29536
2018-05-12T06:09:02.284Z,28192
2018-05-12T06:10:02.285Z,27968
2018-05-12T06:11:02.074Z,28960
2018-05-12T06:12:02.068Z,28288
2018-05-12T06:13:02.074Z,27552
2018-05-12T06:14:02.052Z,26784
2018-05-12T06:15:02.306Z,25248
2018-05-12T06:16:02.096Z,22272
2018-05-12T06:17:02.341Z,21760
2018-05-12T06:18:02.615Z,23872
2018-05-12T06:19:02.335Z,27040
2018-05-12T06:20:02.472Z,29248
2018-05-12T06:21:01.853Z,27552
2018-05-12T06:22:02.368Z,28736
2018-05-12T06:23:02.432Z,26528
2018-05-12T06:24:02.364Z,25824
2018-05-12T06:25:02.393Z,24352
2018-05-12T06:26:02.392Z,28480
2018-05-12T06:27:02.174Z,31232
2018-05-12T06:28:02.747Z,32128
2018-05-12T06:29:02.172Z,33984
2018-05-12T06:30:02.419Z,37760
2018-05-12T06:31:01.912Z,38656
2018-05-12T06:32:02.472Z,36480
2018-05-12T06:33:02.193Z,35616
2018-05-12T06:34:02.485Z,40512
2018-05-12T06:35:02.187Z,47360
2018-05-12T06:36:02.509Z,45984
2018-05-12T06:37:02.485Z,41696
2018-05-12T06:38:02.512Z,36640
2018-05-12T06:39:01.970Z,39168
2018-05-12T06:40:02.542Z,24928
2018-05-12T06:41:02.519Z,23008
2018-05-12T06:42:02.538Z,41312
2018-05-12T06:43:02.514Z,72576
2018-05-12T06:44:02.520Z,44288
2018-05-12T06:45:02.578Z,19616
2018-05-12T06:46:02.064Z,22848
2018-05-12T06:47:02.541Z,21408
2018-05-12T06:48:02.593Z,31808
2018-05-12T06:49:02.574Z,20608
2018-05-12T06:50:02.378Z,19360
2018-05-12T06:51:02.570Z,21440
2018-05-12T06:52:02.623Z,24096
2018-05-12T06:53:02.744Z,33824
2018-05-12T06:54:02.634Z,45824
2018-05-12T06:55:02.439Z,50592
2018-05-12T06:56:02.671Z,45152
2018-05-12T06:57:02.655Z,44576
2018-05-12T06:58:02.662Z,25856
2018-05-12T06:59:02.637Z,31104
2018-05-12T07:00:02.435Z,42272
2018-05-12T07:01:02.168Z,43136
2018-05-12T07:02:02.674Z,43040
2018-05-12T07:03:02.672Z,42944
2018-05-12T07:04:02.715Z,43200
2018-05-12T07:05:02.701Z,40320
2018-05-12T07:06:02.744Z,16788
2018-05-12T07:07:02.950Z,15348
2018-05-12T07:08:02.756Z,13864
2018-05-12T07:09:02.473Z,13668
2018-05-12T07:10:02.807Z,14260
2018-05-12T07:11:02.749Z,15924
2018-05-12T07:12:02.794Z,22176
2018-05-12T07:13:02.516Z,18560
2018-05-12T07:14:02.543Z,19264
2018-05-12T07:15:02.820Z,19200
2018-05-12T07:16:02.818Z,19776
2018-05-12T07:17:02.807Z,17984
2018-05-12T07:18:02.554Z,16320
2018-05-12T07:19:02.796Z,14556
2018-05-12T07:20:02.850Z,13728
2018-05-12T07:21:02.831Z,13496
2018-05-12T07:22:02.611Z,14408
2018-05-12T07:23:02.578Z,16928
2018-05-12T07:24:02.870Z,18432
2018-05-12T07:25:02.834Z,19264
2018-05-12T07:26:02.876Z,19552
2018-05-12T07:27:02.609Z,22656
2018-05-12T07:28:02.641Z,21568
2018-05-12T07:29:02.886Z,22304
2018-05-12T07:30:02.897Z,22560
2018-05-12T07:31:02.614Z,20992
2018-05-12T07:32:02.878Z,19648
2018-05-12T07:33:02.405Z,17760
2018-05-12T07:34:02.916Z,15516
2018-05-12T07:35:03.143Z,13524
2018-05-12T07:36:02.894Z,12836
2018-05-12T07:37:02.927Z,13292
2018-05-12T07:38:02.931Z,14288
2018-05-12T07:39:03.072Z,15384
2018-05-12T07:40:02.972Z,16224
2018-05-12T07:41:02.914Z,16992
2018-05-12T07:42:02.953Z,17664
2018-05-12T07:43:02.917Z,18400
2018-05-12T07:44:02.715Z,19776
2018-05-12T07:45:02.979Z,25152
2018-05-12T07:46:02.706Z,21952
2018-05-12T07:47:02.687Z,20704
2018-05-12T07:48:02.947Z,19264
2018-05-12T07:49:02.458Z,18496
2018-05-12T07:50:02.801Z,17856
2018-05-12T07:51:02.737Z,17376
2018-05-12T07:52:02.958Z,16672
2018-05-12T07:53:02.727Z,16160
2018-05-12T07:54:02.974Z,15592
2018-05-12T07:55:03.025Z,15032
2018-05-12T07:56:02.973Z,14284
2018-05-12T07:57:03.297Z,13648
2018-05-12T07:58:02.994Z,13376
2018-05-12T07:59:03.015Z,13460
2018-05-12T08:00:02.984Z,14304
2018-05-12T08:01:02.748Z,15452
2018-05-12T08:02:02.994Z,16608
2018-05-12T08:03:02.784Z,17312
2018-05-12T08:04:02.982Z,17760
2018-05-12T08:05:03.009Z,17984
2018-05-12T08:06:03.024Z,17920
2018-05-12T08:07:03.043Z,17696
2018-05-12T08:08:02.742Z,17792
2018-05-12T08:09:03.018Z,18272
2018-05-12T08:10:02.990Z,19008
2018-05-12T08:11:03.040Z,19936
2018-05-12T08:12:02.999Z,21088
2018-05-12T08:13:02.991Z,24640
2018-05-12T08:14:03.013Z,36672
2018-05-12T08:15:02.793Z,26432
2018-05-12T08:16:02.748Z,27776
2018-05-12T08:17:02.776Z,26368
2018-05-12T08:18:03.017Z,24480
2018-05-12T08:19:03.063Z,23328
2018-05-12T08:20:03.052Z,25920
2018-05-12T08:21:03.034Z,20736
2018-05-12T08:22:03.029Z,20288
2018-05-12T08:23:03.023Z,20768
2018-05-12T08:24:02.812Z,21152
2018-05-12T08:25:03.050Z,21152
2018-05-12T08:26:02.560Z,20672
2018-05-12T08:27:03.255Z,20160
2018-05-12T08:28:03.079Z,19904
2018-05-12T08:29:02.839Z,19552
2018-05-12T08:30:02.800Z,19200
2018-05-12T08:31:03.105Z,18848
2018-05-12T08:32:03.043Z,18784
2018-05-12T08:33:03.076Z,19072
2018-05-12T08:34:03.069Z,19680
2018-05-12T08:35:03.106Z,20640
2018-05-12T08:36:03.111Z,21152
2018-05-12T08:37:02.825Z,22048
2018-05-12T08:38:02.825Z,23296
2018-05-12T08:39:03.072Z,28448
2018-05-12T08:40:03.112Z,25568
2018-05-12T08:41:02.842Z,24704
2018-05-12T08:42:02.894Z,23680
2018-05-12T08:43:03.075Z,22784
2018-05-12T08:44:02.863Z,22176
2018-05-12T08:45:03.083Z,22208
2018-05-12T08:46:02.879Z,22944
2018-05-12T08:47:02.838Z,23712
2018-05-12T08:48:03.146Z,23264
2018-05-12T08:49:03.116Z,22272
2018-05-12T08:50:03.135Z,21568
2018-05-12T08:51:03.110Z,21632
2018-05-12T08:52:03.111Z,22016
2018-05-12T08:53:03.154Z,21984
2018-05-12T08:54:02.892Z,21856
2018-05-12T08:55:02.861Z,22848
2018-05-12T08:56:03.164Z,23872
2018-05-12T08:57:03.138Z,23776
2018-05-12T08:58:03.174Z,22144
2018-05-12T08:59:03.133Z,20960
2018-05-12T09:00:02.913Z,20416
2018-05-12T09:01:03.132Z,21344
2018-05-12T09:02:02.911Z,23392
2018-05-12T09:03:02.896Z,24032
2018-05-12T09:04:02.932Z,24096
2018-05-12T09:05:03.164Z,24352
2018-05-12T09:06:03.184Z,24320
2018-05-12T09:07:03.144Z,24224
2018-05-12T09:08:02.921Z,24608
2018-05-12T09:09:03.211Z,25376
2018-05-12T09:10:02.938Z,26784
2018-05-12T09:11:02.950Z,27328
2018-05-12T09:12:02.915Z,27008
2018-05-12T09:13:02.939Z,26432
2018-05-12T09:14:03.166Z,26720
2018-05-12T09:15:03.234Z,26720
2018-05-12T09:16:02.926Z,26720
2018-05-12T09:17:02.980Z,27424
2018-05-12T09:18:02.693Z,27584
2018-05-12T09:19:02.719Z,27424
2018-05-12T09:20:03.264Z,27872
2018-05-12T09:21:02.969Z,27744
2018-05-12T09:22:03.243Z,27872
2018-05-12T09:23:02.957Z,27392
2018-05-12T09:24:03.246Z,26528
2018-05-12T09:25:02.985Z,26144
2018-05-12T09:26:02.992Z,25728
2018-05-12T09:27:03.272Z,24864
2018-05-12T09:28:02.978Z,23744
2018-05-12T09:29:02.999Z,22400
2018-05-12T09:30:03.261Z,20352
2018-05-12T09:31:03.288Z,18656
2018-05-12T09:32:03.267Z,18240
2018-05-12T09:33:03.311Z,18624
2018-05-12T09:34:02.750Z,19136
2018-05-12T09:35:03.051Z,19648
2018-05-12T09:36:03.008Z,20000
2018-05-12T09:37:02.772Z,19680
2018-05-12T09:38:03.045Z,19104
2018-05-12T09:39:03.065Z,18592
2018-05-12T09:40:03.087Z,18080
2018-05-12T09:41:03.039Z,17632
2018-05-12T09:42:02.782Z,16864
2018-05-12T09:43:03.289Z,16256
2018-05-12T09:44:03.082Z,15240
2018-05-12T09:45:03.060Z,14116
2018-05-12T09:46:03.068Z,13588
2018-05-12T09:47:03.358Z,13372
2018-05-12T09:48:03.055Z,14012
2018-05-12T09:49:03.348Z,15468
2018-05-12T09:50:03.323Z,17664
2018-05-12T09:51:03.099Z,19904
2018-05-12T09:52:03.061Z,22176
2018-05-12T09:53:03.092Z,23872
2018-05-12T09:54:03.332Z,24480
2018-05-12T09:55:03.387Z,24224
2018-05-12T09:56:03.380Z,24416
2018-05-12T09:57:03.112Z,24800
2018-05-12T09:58:03.093Z,24992
2018-05-12T09:59:03.339Z,24032
2018-05-12T10:00:03.137Z,22176
2018-05-12T10:01:03.117Z,22080
2018-05-12T10:02:03.170Z,21856
2018-05-12T10:03:03.102Z,21632
2018-05-12T10:04:03.148Z,21696
2018-05-12T10:05:03.363Z,22848
2018-05-12T10:06:03.394Z,24160
2018-05-12T10:07:03.373Z,24576
2018-05-12T10:08:03.156Z,23456
2018-05-12T10:09:03.403Z,21696
2018-05-12T10:10:03.415Z,19808
2018-05-12T10:11:03.123Z,18240
2018-05-12T10:12:03.442Z,17312
2018-05-12T10:13:03.336Z,16188
2018-05-12T10:14:03.152Z,14624
2018-05-12T10:15:03.133Z,13888
2018-05-12T10:16:03.437Z,14696
2018-05-12T10:17:03.505Z,15972
2018-05-12T10:18:03.446Z,18144
2018-05-12T10:19:03.416Z,19872
2018-05-12T10:20:03.527Z,20512
2018-05-12T10:21:03.154Z,20768
2018-05-12T10:22:03.505Z,19904
2018-05-12T10:23:03.197Z,19168
2018-05-12T10:24:03.471Z,19232
2018-05-12T10:25:03.443Z,19296
2018-05-12T10:26:03.443Z,18784
2018-05-12T10:27:03.212Z,18144
2018-05-12T10:28:03.481Z,18240
2018-05-12T10:29:03.453Z,18272
2018-05-12T10:30:03.445Z,18400
2018-05-12T10:31:03.441Z,18912
2018-05-12T10:32:03.227Z,18432
2018-05-12T10:33:02.947Z,18912
2018-05-12T10:34:03.236Z,20480
2018-05-12T10:35:03.449Z,21728
2018-05-12T10:36:03.258Z,22272
2018-05-12T10:37:03.218Z,22944
2018-05-12T10:38:02.968Z,23264
2018-05-12T10:39:03.470Z,23040
2018-05-12T10:40:03.210Z,21728
2018-05-12T10:41:03.251Z,20704
2018-05-12T10:42:03.565Z,20192
2018-05-12T10:43:03.275Z,20512
2018-05-12T10:44:03.003Z,21120
2018-05-12T10:45:03.247Z,20864
2018-05-12T10:46:04.029Z,18976
2018-05-12T10:47:03.488Z,18528
2018-05-12T10:48:03.295Z,19008
2018-05-12T10:49:03.530Z,19584
2018-05-12T10:50:03.544Z,20032
2018-05-12T10:51:03.496Z,20160
2018-05-12T10:52:03.288Z,19968
2018-05-12T10:53:03.502Z,19456
2018-05-12T10:54:03.548Z,18720
2018-05-12T10:55:03.578Z,18112
2018-05-12T10:56:03.560Z,18240
2018-05-12T10:57:03.545Z,19136
2018-05-12T10:58:03.298Z,19776
2018-05-12T10:59:03.321Z,19584
2018-05-12T11:00:03.288Z,19232
2018-05-12T11:01:03.562Z,19232
2018-05-12T11:02:03.817Z,19008
2018-05-12T11:03:03.568Z,18656
2018-05-12T11:04:03.588Z,18080
2018-05-12T11:05:03.561Z,17728
2018-05-12T11:06:03.596Z,17024
2018-05-12T11:07:03.567Z,16208
2018-05-12T11:08:03.364Z,15948
2018-05-12T11:09:03.305Z,16480
2018-05-12T11:10:03.612Z,17312
2018-05-12T11:11:03.571Z,18048
2018-05-12T11:12:03.371Z,18848
2018-05-12T11:13:03.635Z,19904
2018-05-12T11:14:03.360Z,20128
2018-05-12T11:15:03.326Z,19840
2018-05-12T11:16:03.985Z,19840
2018-05-12T11:17:03.359Z,19936
2018-05-12T11:18:03.627Z,20288
2018-05-12T11:19:03.382Z,20736
2018-05-12T11:20:03.600Z,20896
2018-05-12T11:21:03.573Z,20768
2018-05-12T11:22:04.182Z,21056
2018-05-12T11:23:03.397Z,21504
2018-05-12T11:24:03.618Z,21216
2018-05-12T11:25:03.675Z,20544
2018-05-12T11:26:03.645Z,20448
2018-05-12T11:27:03.666Z,19744
2018-05-12T11:28:03.639Z,18464
2018-05-12T11:29:03.654Z,17088
2018-05-12T11:30:03.666Z,16544
2018-05-12T11:31:03.382Z,16544
2018-05-12T11:32:03.160Z,17632
2018-05-12T11:33:03.672Z,18848
2018-05-12T11:34:03.421Z,19264
2018-05-12T11:35:03.437Z,18624
2018-05-12T11:36:03.669Z,17376
2018-05-12T11:37:03.899Z,16228
2018-05-12T11:38:03.668Z,14940
2018-05-12T11:39:03.711Z,13376
2018-05-12T11:40:03.673Z,11760
2018-05-12T11:41:03.473Z,10640
2018-05-12T11:42:03.445Z,10084
2018-05-12T11:43:03.236Z,9868
2018-05-12T11:44:03.689Z,10052
2018-05-12T11:45:03.485Z,10376
2018-05-12T11:46:03.710Z,11340
2018-05-12T11:47:03.751Z,12856
2018-05-12T11:48:03.246Z,14900
2018-05-12T11:49:03.737Z,16928
2018-05-12T11:50:03.716Z,18656
2018-05-12T11:51:03.463Z,19712
2018-05-12T11:52:03.761Z,19392
2018-05-12T11:53:03.477Z,18240
2018-05-12T11:54:03.974Z,17792
2018-05-12T11:55:03.519Z,17568
2018-05-12T11:56:03.728Z,17728
2018-05-12T11:57:03.773Z,17696
2018-05-12T11:58:03.757Z,17248
2018-05-12T11:59:03.775Z,17440
2018-05-12T12:00:03.739Z,17376
2018-05-12T12:01:03.257Z,16448
2018-05-12T12:02:03.776Z,14756
2018-05-12T12:03:03.555Z,13460
2018-05-12T12:04:03.530Z,12936
2018-05-12T12:05:03.520Z,12984
2018-05-12T12:06:03.787Z,13068
2018-05-12T12:07:03.814Z,13604
2018-05-12T12:08:03.261Z,14464
2018-05-12T12:09:03.284Z,15168
2018-05-12T12:10:03.517Z,15824
2018-05-12T12:11:03.834Z,15920
2018-05-12T12:12:03.520Z,15512
2018-05-12T12:13:03.834Z,15500
2018-05-12T12:14:03.059Z,15284
2018-05-12T12:15:03.057Z,15216
2018-05-12T12:16:03.528Z,15244
2018-05-12T12:17:03.852Z,14672
2018-05-12T12:18:03.802Z,14188
2018-05-12T12:19:03.672Z,13884
2018-05-12T12:20:03.566Z,14156
2018-05-12T12:21:03.568Z,14284
2018-05-12T12:22:03.855Z,14856
2018-05-12T12:23:03.860Z,15300
2018-05-12T12:24:03.565Z,15932
2018-05-12T12:25:03.578Z,15524
2018-05-12T12:26:03.813Z,13836
2018-05-12T12:27:03.599Z,12652
2018-05-12T12:28:03.572Z,11876
2018-05-12T12:29:03.726Z,11872
2018-05-12T12:30:03.577Z,11452
2018-05-12T12:31:03.879Z,10520
2018-05-12T12:32:03.835Z,9912
2018-05-12T12:33:03.620Z,9900
2018-05-12T12:34:03.845Z,9968
2018-05-12T12:35:03.635Z,10120
2018-05-12T12:36:03.875Z,10548
2018-05-12T12:37:03.635Z,10928
2018-05-12T12:38:03.880Z,11756
2018-05-12T12:39:03.334Z,13160
2018-05-12T12:40:03.631Z,14468
2018-05-12T12:41:03.860Z,15424
2018-05-12T12:42:03.688Z,16116
2018-05-12T12:43:03.601Z,16672
2018-05-12T12:44:03.891Z,17056
2018-05-12T12:45:04.222Z,17024
2018-05-12T12:46:03.873Z,16704
2018-05-12T12:47:03.656Z,16128
2018-05-12T12:48:03.878Z,15192
2018-05-12T12:49:03.882Z,14492
2018-05-12T12:50:03.621Z,13976
2018-05-12T12:51:03.908Z,13888
2018-05-12T12:52:03.662Z,14556
2018-05-12T12:53:03.655Z,15036
2018-05-12T12:54:03.637Z,15128
2018-05-12T12:55:03.616Z,15112
2018-05-12T12:56:03.919Z,14768
2018-05-12T12:57:03.673Z,14136
2018-05-12T12:58:03.936Z,13020
2018-05-12T12:59:03.880Z,11960
2018-05-12T13:00:03.685Z,11448
2018-05-12T13:01:03.656Z,11280
2018-05-12T13:02:03.668Z,10900
2018-05-12T13:03:03.661Z,10488
2018-05-12T13:04:04.003Z,10036
2018-05-12T13:05:03.981Z,9684
2018-05-12T13:06:03.925Z,9472
2018-05-12T13:07:03.653Z,9684
2018-05-12T13:08:03.652Z,10228
2018-05-12T13:09:03.929Z,10472
2018-05-12T13:10:03.947Z,10372
2018-05-12T13:11:03.911Z,10180
2018-05-12T13:12:03.698Z,10328
2018-05-12T13:13:03.677Z,10776
2018-05-12T13:14:03.729Z,11072
2018-05-12T13:15:03.663Z,11316
2018-05-12T13:16:04.233Z,11732
2018-05-12T13:17:03.671Z,12156
2018-05-12T13:18:03.952Z,11940
2018-05-12T13:19:03.918Z,11440
2018-05-12T13:20:03.985Z,10560
2018-05-12T13:21:03.956Z,9504
2018-05-12T13:22:04.052Z,8928